Time;durP1;ratioP1;P1;durP2;ratioP2;P2;SDS_P1;SDS_P2;PMS_P1;PMS_P2;Temp;Humidity;BMP_temperature;BMP_pressure;BME280_temperature;BME280_humidity;BME280_pressure;Samples;Min_cycle;Max_cycle;Signal;HPM_P1;HPM_P2
2021/10/16 00:00:35;;;;;;;1.33;0.60;;;;;;;6.62;100.00;101142.53;5094389;28;20208;-74
2021/10/16 00:03:01;;;;;;;0.40;0.30;;;;;;;6.64;100.00;101151.22;5094494;28;20296;-74
2021/10/16 00:05:26;;;;;;;0.53;0.53;;;;;;;6.67;100.00;101148.00;5076031;28;20181;-74
2021/10/16 00:07:51;;;;;;;3.50;0.83;;;;;;;6.69;100.00;101145.00;5094230;28;20162;-74
2021/10/16 00:10:17;;;;;;;1.33;0.83;;;;;;;6.69;100.00;101142.28;5075636;28;20620;-74
2021/10/16 00:12:43;;;;;;;3.27;1.07;;;;;;;6.69;100.00;101155.88;5093974;28;20186;-74
2021/10/16 00:15:11;;;;;;;0.27;0.23;;;;;;;6.70;100.00;101152.06;5093985;28;20201;-74
2021/10/16 00:17:36;;;;;;;1.87;0.53;;;;;;;6.71;100.00;101159.13;5075684;28;20178;-74
2021/10/16 00:20:04;;;;;;;0.30;0.23;;;;;;;6.70;100.00;101161.03;5075747;28;20199;-74
2021/10/16 00:22:29;;;;;;;2.70;0.60;;;;;;;6.73;100.00;101162.38;5075743;28;20628;-74
2021/10/16 00:24:54;;;;;;;0.50;0.50;;;;;;;6.73;100.00;101157.75;5093578;28;20174;-74
2021/10/16 00:27:20;;;;;;;5.90;1.17;;;;;;;6.69;100.00;101161.28;5075511;28;20274;-74
2021/10/16 00:29:45;;;;;;;1.80;1.10;;;;;;;6.65;100.00;101165.59;5093726;28;20563;-74
2021/10/16 00:32:10;;;;;;;2.63;0.93;;;;;;;6.61;100.00;101169.94;5093925;28;20273;-74
2021/10/16 00:34:36;;;;;;;1.87;1.50;;;;;;;6.64;100.00;101177.56;5074917;28;20632;-74
2021/10/16 00:37:01;;;;;;;0.53;0.53;;;;;;;6.64;100.00;101175.66;5075237;28;20202;-74
2021/10/16 00:39:27;;;;;;;0.30;0.30;;;;;;;6.60;100.00;101171.84;5093485;28;20174;-74
2021/10/16 00:41:52;;;;;;;1.50;0.93;;;;;;;6.56;100.00;101168.03;5075077;28;20201;-74
2021/10/16 00:44:22;;;;;;;4.60;0.60;;;;;;;6.55;100.00;101159.09;5074982;28;20170;-75
2021/10/16 00:46:49;;;;;;;1.80;1.07;;;;;;;6.53;100.00;101169.41;5075157;28;20170;-74
2021/10/16 00:49:15;;;;;;;0.90;0.47;;;;;;;6.52;100.00;101154.19;5075148;28;20197;-74
2021/10/16 00:51:41;;;;;;;3.57;1.67;;;;;;;6.50;100.00;101169.91;5075009;28;20242;-74
2021/10/16 00:54:08;;;;;;;1.00;0.57;;;;;;;6.51;100.00;101171.56;5092762;28;20162;-74
2021/10/16 00:56:43;;;;;;;0.40;0.40;;;;;;;6.53;100.00;101171.28;5093106;28;20197;-74
2021/10/16 00:59:09;;;;;;;2.20;0.70;;;;;;;6.48;100.00;101169.34;5074669;28;20197;-74
2021/10/16 01:01:36;;;;;;;0.90;0.80;;;;;;;6.49;100.00;101171.00;5074677;28;20201;-74
2021/10/16 01:04:03;;;;;;;0.33;0.33;;;;;;;6.49;100.00;101168.28;5092602;28;20492;-74
2021/10/16 01:06:29;;;;;;;2.50;1.07;;;;;;;6.48;100.00;101168.53;5092742;28;20672;-74
2021/10/16 01:08:58;;;;;;;1.53;1.00;;;;;;;6.50;100.00;101172.63;5093218;28;20170;-74
2021/10/16 01:11:46;;;;;;;2.83;1.23;;;;;;;6.49;100.00;101164.75;5092566;28;20182;-74
2021/10/16 01:14:12;;;;;;;1.40;0.43;;;;;;;6.55;100.00;101172.66;5059291;28;20824;-74
2021/10/16 01:16:41;;;;;;;0.37;0.37;;;;;;;6.53;100.00;101169.41;5074515;28;20177;-74
2021/10/16 01:19:10;;;;;;;2.10;1.23;;;;;;;6.51;100.00;101174.28;5074523;28;20207;-74
2021/10/16 01:21:39;;;;;;;0.30;0.30;;;;;;;6.53;100.00;101177.53;5074393;28;20233;-74
2021/10/16 01:24:05;;;;;;;1.27;0.87;;;;;;;6.59;100.00;101167.50;5092469;28;20180;-74
2021/10/16 01:26:31;;;;;;;0.47;0.47;;;;;;;6.60;100.00;101176.47;5092440;28;20169;-74
2021/10/16 01:28:57;;;;;;;2.43;1.60;;;;;;;6.65;100.00;101176.47;5092496;28;20506;-74
2021/10/16 01:31:24;;;;;;;2.53;0.53;;;;;;;6.63;100.00;101175.91;5092475;28;20174;-74
2021/10/16 01:33:50;;;;;;;3.47;1.33;;;;;;;6.62;100.00;101166.16;5092551;28;20204;-74
2021/10/16 01:36:15;;;;;;;6.33;0.80;;;;;;;6.61;100.00;101170.75;5092314;28;20202;-74
2021/10/16 01:38:40;;;;;;;3.03;0.33;;;;;;;6.61;100.00;101169.94;5074159;28;20169;-74
2021/10/16 01:41:06;;;;;;;0.87;0.67;;;;;;;6.64;100.00;101169.41;5074328;28;20574;-74
2021/10/16 01:43:31;;;;;;;4.90;0.50;;;;;;;6.60;100.00;101166.41;5092149;28;20201;-74
2021/10/16 01:45:57;;;;;;;7.83;0.80;;;;;;;6.60;100.00;101158.28;5073807;28;20524;-74
2021/10/16 01:48:23;;;;;;;5.40;1.07;;;;;;;6.61;100.00;101164.50;5091859;28;20628;-74
2021/10/16 01:50:50;;;;;;;1.40;0.90;;;;;;;6.60;100.00;101152.03;5091981;28;20174;-75
2021/10/16 01:53:16;;;;;;;3.07;1.13;;;;;;;6.56;100.00;101154.47;5091982;28;20172;-74
2021/10/16 01:55:42;;;;;;;0.70;0.50;;;;;;;6.54;100.00;101154.75;5091857;28;20169;-75
2021/10/16 01:58:13;;;;;;;1.80;0.60;;;;;;;6.57;100.00;101147.94;5092483;28;20162;-74
2021/10/16 02:00:42;;;;;;;2.77;0.97;;;;;;;6.53;100.00;101155.00;5091963;28;20170;-74
2021/10/16 02:03:08;;;;;;;6.13;1.13;;;;;;;6.53;100.00;101146.88;5073352;28;20280;-74
2021/10/16 02:05:35;;;;;;;0.40;0.40;;;;;;;6.54;100.00;101145.78;5072781;28;20483;-74
2021/10/16 02:08:00;;;;;;;3.80;2.50;;;;;;;6.50;100.00;101153.63;5091149;28;20574;-74
2021/10/16 02:10:26;;;;;;;1.20;0.60;;;;;;;6.49;100.00;101153.88;5072129;28;20170;-74
2021/10/16 02:12:51;;;;;;;0.93;0.70;;;;;;;6.47;100.00;101151.44;5073083;28;20205;-74
2021/10/16 02:15:17;;;;;;;2.17;0.60;;;;;;;6.46;100.00;101149.81;5072795;28;20174;-74
2021/10/16 02:17:42;;;;;;;0.57;0.57;;;;;;;6.48;100.00;101150.34;5091086;28;20171;-74
2021/10/16 02:20:08;;;;;;;1.13;0.53;;;;;;;6.47;100.00;101156.06;5090992;28;20216;-74
2021/10/16 02:22:34;;;;;;;0.53;0.50;;;;;;;6.47;100.00;101159.59;5072642;28;20216;-74
2021/10/16 02:24:59;;;;;;;1.63;0.70;;;;;;;6.47;100.00;101159.59;5090606;28;20174;-74
2021/10/16 02:27:24;;;;;;;0.27;0.20;;;;;;;6.47;100.00;101156.88;5091055;28;20195;-74
2021/10/16 02:29:50;;;;;;;1.10;0.50;;;;;;;6.44;100.00;101157.41;5091030;28;20637;-74
2021/10/16 02:32:15;;;;;;;5.13;0.57;;;;;;;6.42;100.00;101156.06;5072810;28;20182;-74
2021/10/16 02:34:41;;;;;;;2.63;2.17;;;;;;;6.37;100.00;101151.44;5072417;28;20677;-74
2021/10/16 02:37:06;;;;;;;0.60;0.40;;;;;;;6.37;100.00;101154.16;5072570;28;20701;-74
2021/10/16 02:39:31;;;;;;;0.43;0.20;;;;;;;6.38;100.00;101157.66;5090760;28;20177;-74
2021/10/16 02:41:58;;;;;;;0.43;0.30;;;;;;;6.35;100.00;101148.13;5090866;28;20792;-74
2021/10/16 02:44:24;;;;;;;5.40;0.70;;;;;;;6.35;100.00;101164.41;5090564;28;20279;-74
2021/10/16 02:46:49;;;;;;;2.00;0.53;;;;;;;6.34;100.00;101156.56;5072701;28;20656;-74
2021/10/16 02:49:15;;;;;;;0.70;0.70;;;;;;;6.33;100.00;101163.06;5090619;28;20169;-74
2021/10/16 02:51:40;;;;;;;11.73;1.30;;;;;;;6.33;100.00;101157.63;5072606;28;20189;-74
2021/10/16 02:54:05;;;;;;;2.67;1.03;;;;;;;6.33;100.00;101168.50;5090298;28;20222;-74
2021/10/16 02:56:31;;;;;;;0.60;0.60;;;;;;;6.28;100.00;101163.88;5090919;28;20170;-74
2021/10/16 02:58:56;;;;;;;0.40;0.33;;;;;;;6.25;100.00;101169.81;5072327;28;20529;-75
2021/10/16 03:01:22;;;;;;;0.57;0.50;;;;;;;6.23;100.00;101167.38;5090568;28;20173;-74
2021/10/16 03:03:47;;;;;;;0.77;0.30;;;;;;;6.22;100.00;101178.47;5090134;28;20563;-74
2021/10/16 03:06:12;;;;;;;0.53;0.53;;;;;;;6.24;100.00;101170.91;5072158;28;20528;-74
2021/10/16 03:08:38;;;;;;;4.70;1.57;;;;;;;6.23;100.00;101153.00;5090294;28;20640;-74
2021/10/16 03:11:03;;;;;;;0.57;0.50;;;;;;;6.23;100.00;101150.28;5090231;28;20685;-74
2021/10/16 03:13:32;;;;;;;0.43;0.33;;;;;;;6.19;100.00;101158.13;5072100;28;20178;-74
2021/10/16 03:15:57;;;;;;;0.50;0.23;;;;;;;6.20;100.00;101156.22;5090147;28;20420;-75
2021/10/16 03:18:22;;;;;;;0.17;0.17;;;;;;;6.21;100.00;101166.00;5090227;28;20166;-74
2021/10/16 03:20:48;;;;;;;4.73;0.53;;;;;;;6.19;100.00;101160.81;5073890;28;20224;-74
2021/10/16 03:23:13;;;;;;;2.03;0.47;;;;;;;6.21;100.00;101163.28;5074880;28;20205;-73
2021/10/16 03:25:39;;;;;;;1.43;1.23;;;;;;;6.19;100.00;101160.00;5091484;28;20235;-75
2021/10/16 03:28:04;;;;;;;1.10;0.80;;;;;;;6.15;100.00;101157.03;5074259;28;20205;-74
2021/10/16 03:30:29;;;;;;;3.83;1.73;;;;;;;6.15;100.00;101157.03;5094825;28;20509;-74
2021/10/16 03:32:55;;;;;;;3.93;0.33;;;;;;;6.13;100.00;101169.22;5076473;28;21268;-74
2021/10/16 03:35:20;;;;;;;0.30;0.23;;;;;;;6.15;100.00;101158.91;5094604;28;20181;-74
2021/10/16 03:37:45;;;;;;;7.57;0.83;;;;;;;6.12;100.00;101162.97;5094657;28;20234;-74
2021/10/16 03:40:11;;;;;;;6.13;1.00;;;;;;;6.09;100.00;101173.56;5094579;28;20162;-74
2021/10/16 03:42:36;;;;;;;0.60;0.13;;;;;;;6.07;100.00;101160.22;5076303;28;20258;-74
2021/10/16 03:45:02;;;;;;;6.27;0.67;;;;;;;6.09;100.00;101165.41;5076239;28;20166;-74
2021/10/16 03:47:27;;;;;;;0.70;0.43;;;;;;;5.97;100.00;101171.84;5094552;28;20162;-74
2021/10/16 03:49:53;;;;;;;3.77;2.23;;;;;;;5.97;100.00;101155.59;5094434;28;20264;-74
2021/10/16 03:52:18;;;;;;;11.77;2.67;;;;;;;5.96;100.00;101156.66;5076152;28;20251;-74
2021/10/16 03:54:44;;;;;;;5.50;0.80;;;;;;;6.02;100.00;101168.34;5094264;28;20221;-74
2021/10/16 03:57:09;;;;;;;0.93;0.40;;;;;;;6.02;100.00;101162.91;5076056;28;20651;-74
2021/10/16 03:59:37;;;;;;;6.37;0.43;;;;;;;6.01;100.00;101171.31;5094353;28;20584;-74
2021/10/16 04:02:04;;;;;;;3.37;1.07;;;;;;;6.01;100.00;101172.13;5094226;28;20316;-74
2021/10/16 04:04:29;;;;;;;0.83;0.60;;;;;;;6.00;100.00;101180.53;5075695;28;20181;-73
2021/10/16 04:06:54;;;;;;;2.03;1.03;;;;;;;5.96;100.00;101181.06;5075811;28;20591;-74
2021/10/16 04:09:20;;;;;;;0.87;0.67;;;;;;;5.94;100.00;101179.72;5094140;28;20201;-74
2021/10/16 04:11:45;;;;;;;4.17;1.43;;;;;;;5.93;100.00;101178.03;5075814;28;20268;-73
2021/10/16 04:14:11;;;;;;;6.17;1.23;;;;;;;5.92;100.00;101195.41;5075841;28;20253;-74
2021/10/16 04:16:36;;;;;;;0.70;0.70;;;;;;;5.91;100.00;101183.72;5093939;28;20231;-74
2021/10/16 04:19:01;;;;;;;2.17;0.70;;;;;;;5.93;100.00;101197.88;5075812;28;20633;-74
2021/10/16 04:21:27;;;;;;;13.60;1.40;;;;;;;5.99;100.00;101189.75;5075680;28;20312;-74
2021/10/16 04:23:52;;;;;;;0.50;0.20;;;;;;;6.02;100.00;101189.22;5093744;28;20205;-74
2021/10/16 04:26:17;;;;;;;1.40;1.30;;;;;;;6.05;100.00;101188.69;5093639;28;20363;-74
2021/10/16 04:28:43;;;;;;;2.90;0.97;;;;;;;6.03;100.00;101186.25;5093674;28;20361;-74
2021/10/16 04:31:08;;;;;;;3.63;0.60;;;;;;;6.01;100.00;101182.16;5075483;28;20197;-74
2021/10/16 04:33:33;;;;;;;0.97;0.40;;;;;;;6.00;100.00;101191.38;5093124;28;20248;-74
2021/10/16 04:36:00;;;;;;;0.83;0.30;;;;;;;5.97;100.00;101187.31;5075471;28;20182;-74
2021/10/16 04:38:26;;;;;;;0.50;0.20;;;;;;;5.94;100.00;101182.41;5093598;28;20167;-74
2021/10/16 04:40:51;;;;;;;0.93;0.93;;;;;;;5.96;100.00;101182.97;5093550;28;20645;-74
2021/10/16 04:43:16;;;;;;;5.13;0.60;;;;;;;5.97;100.00;101188.13;5075255;28;20198;-74
2021/10/16 04:45:45;;;;;;;0.00;0.00;;;;;;;5.94;100.00;101182.41;5093345;28;20188;-73
2021/10/16 04:48:11;;;;;;;3.60;0.40;;;;;;;5.91;100.00;101186.44;5093310;28;20247;-74
2021/10/16 04:50:36;;;;;;;7.83;0.67;;;;;;;5.96;100.00;101182.97;5093346;28;20196;-73
2021/10/16 04:53:02;;;;;;;1.53;0.70;;;;;;;5.91;100.00;101188.34;5093279;28;20177;-74
2021/10/16 04:55:27;;;;;;;2.73;0.33;;;;;;;5.90;100.00;101184.00;5074809;28;20182;-74
2021/10/16 04:57:53;;;;;;;1.00;0.73;;;;;;;5.91;100.00;101183.72;5093205;28;20173;-74
2021/10/16 05:00:18;;;;;;;0.43;0.30;;;;;;;5.84;100.00;101183.13;5075042;28;20189;-74
2021/10/16 05:02:44;;;;;;;1.93;1.77;;;;;;;5.83;100.00;101186.91;5093078;28;20197;-74
2021/10/16 05:05:09;;;;;;;1.40;1.33;;;;;;;5.78;100.00;101184.16;5092805;28;20178;-74
2021/10/16 05:07:34;;;;;;;0.27;0.17;;;;;;;5.76;100.00;101186.31;5092925;28;20265;-74
2021/10/16 05:10:01;;;;;;;0.77;0.77;;;;;;;5.74;100.00;101187.66;5093128;28;20169;-74
2021/10/16 05:12:26;;;;;;;1.60;0.30;;;;;;;5.76;100.00;101194.44;5092855;28;20174;-74
2021/10/16 05:14:52;;;;;;;5.30;1.07;;;;;;;5.74;100.00;101195.78;5092763;28;20170;-74
2021/10/16 05:17:17;;;;;;;0.30;0.30;;;;;;;5.73;100.00;101192.28;5092946;28;20176;-75
2021/10/16 05:19:43;;;;;;;9.43;1.40;;;;;;;5.75;100.00;101192.00;5092692;28;20632;-74
2021/10/16 05:22:08;;;;;;;0.27;0.17;;;;;;;5.78;100.00;101189.59;5092744;28;20205;-74
2021/10/16 05:24:34;;;;;;;1.23;0.80;;;;;;;5.83;100.00;101186.09;5092550;28;20208;-74
2021/10/16 05:26:59;;;;;;;0.60;0.43;;;;;;;5.87;100.00;101198.06;5092607;28;20244;-74
2021/10/16 05:29:25;;;;;;;2.80;0.93;;;;;;;5.91;100.00;101204.63;5092545;28;20162;-74
2021/10/16 05:31:50;;;;;;;0.40;0.27;;;;;;;5.95;100.00;101205.75;5092450;28;20170;-74
2021/10/16 05:34:16;;;;;;;0.00;0.00;;;;;;;6.00;100.00;101204.94;5092311;28;20189;-74
2021/10/16 05:36:41;;;;;;;1.03;0.50;;;;;;;6.01;100.00;101195.72;5092441;28;20173;-74
2021/10/16 05:39:07;;;;;;;1.90;0.83;;;;;;;6.06;100.00;101212.03;5092350;28;20530;-74
2021/10/16 05:41:32;;;;;;;4.47;1.60;;;;;;;6.08;100.00;101207.19;5074138;28;20174;-74
2021/10/16 05:43:57;;;;;;;0.50;0.50;;;;;;;6.08;100.00;101194.44;5091224;28;20170;-74
2021/10/16 05:46:23;;;;;;;1.70;1.03;;;;;;;6.07;100.00;101209.03;5074352;28;20212;-74
2021/10/16 05:48:48;;;;;;;0.20;0.20;;;;;;;6.04;100.00;101215.00;5074044;28;20273;-74
2021/10/16 05:51:14;;;;;;;1.50;0.60;;;;;;;6.04;100.00;101212.28;5092132;28;20166;-74
2021/10/16 05:53:39;;;;;;;0.20;0.20;;;;;;;6.01;100.00;101215.53;5073903;28;20597;-75
2021/10/16 05:56:05;;;;;;;2.17;0.27;;;;;;;5.97;100.00;101211.72;5091602;28;20636;-74
2021/10/16 05:58:30;;;;;;;1.00;0.40;;;;;;;5.94;100.00;101212.25;5091726;28;20603;-74
2021/10/16 06:00:56;;;;;;;4.00;1.50;;;;;;;5.95;100.00;101212.00;5092053;28;20534;-74
2021/10/16 06:03:21;;;;;;;2.40;1.03;;;;;;;5.95;100.00;101214.69;5073594;28;20556;-73
2021/10/16 06:05:47;;;;;;;5.20;0.63;;;;;;;5.93;100.00;101213.31;5091684;28;20173;-72
2021/10/16 06:08:12;;;;;;;2.23;1.20;;;;;;;5.92;100.00;101219.81;5091815;28;20174;-73
2021/10/16 06:10:38;;;;;;;1.67;1.27;;;;;;;5.93;100.00;101222.28;5091547;28;20250;-73
2021/10/16 06:13:03;;;;;;;0.80;0.40;;;;;;;5.94;100.00;101223.91;5091675;28;20170;-73
2021/10/16 06:15:29;;;;;;;0.37;0.20;;;;;;;5.97;100.00;101219.84;5073393;28;20180;-72
2021/10/16 06:17:54;;;;;;;1.70;0.33;;;;;;;5.95;100.00;101230.97;5091662;28;20170;-73
2021/10/16 06:20:20;;;;;;;1.50;0.77;;;;;;;5.98;100.00;101232.34;5073549;28;20165;-73
2021/10/16 06:22:45;;;;;;;1.40;0.60;;;;;;;6.00;100.00;101232.06;5073315;28;20201;-73
2021/10/16 06:25:11;;;;;;;4.13;0.93;;;;;;;6.02;100.00;101229.91;5071173;28;20184;-72
2021/10/16 06:27:36;;;;;;;0.80;0.47;;;;;;;6.06;100.00;101239.16;5090891;28;20557;-73
2021/10/16 06:30:04;;;;;;;4.07;0.90;;;;;;;6.12;100.00;101241.66;5091323;28;20170;-73
2021/10/16 06:32:29;;;;;;;7.43;0.97;;;;;;;6.19;100.00;101244.13;5091364;28;20178;-73
2021/10/16 06:34:55;;;;;;;0.67;0.60;;;;;;;6.25;100.00;101240.38;5073500;28;20578;-73
2021/10/16 06:37:20;;;;;;;1.13;0.70;;;;;;;6.31;100.00;101252.06;5075507;28;20625;-73
2021/10/16 06:39:45;;;;;;;1.10;0.73;;;;;;;6.35;100.00;101256.69;5091622;28;20169;-73
2021/10/16 06:42:11;;;;;;;7.53;2.60;;;;;;;6.40;100.00;101255.91;5091230;28;20578;-73
2021/10/16 06:44:36;;;;;;;1.13;0.10;;;;;;;6.42;100.00;101246.44;5073070;28;20531;-73
2021/10/16 06:47:02;;;;;;;0.97;0.97;;;;;;;6.46;100.00;101255.66;5073015;28;20261;-71
2021/10/16 06:49:27;;;;;;;1.30;1.20;;;;;;;6.49;100.00;101249.72;5073342;28;20555;-76
2021/10/16 06:51:52;;;;;;;1.70;0.90;;;;;;;6.55;100.00;101259.53;5073068;28;20261;-75
2021/10/16 06:54:18;;;;;;;3.17;1.23;;;;;;;6.57;100.00;101257.38;5090860;28;20272;-76
2021/10/16 06:56:44;;;;;;;1.13;0.97;;;;;;;6.59;100.00;101269.84;5090813;28;20174;-76
2021/10/16 06:59:09;;;;;;;1.30;0.70;;;;;;;6.62;100.00;101267.41;5072873;28;20165;-75
2021/10/16 07:01:35;;;;;;;7.50;1.50;;;;;;;6.63;100.00;101269.06;5072728;28;20173;-75
2021/10/16 07:04:00;;;;;;;1.10;0.83;;;;;;;6.64;100.00;101272.59;5090646;28;20180;-75
2021/10/16 07:06:26;;;;;;;3.00;1.23;;;;;;;6.68;100.00;101274.53;5090689;28;20182;-75
2021/10/16 07:08:51;;;;;;;3.13;0.47;;;;;;;6.71;100.00;101273.16;5072921;28;20177;-75
2021/10/16 07:11:16;;;;;;;1.43;1.33;;;;;;;6.76;100.00;101284.03;5072795;28;20209;-76
2021/10/16 07:13:42;;;;;;;5.20;1.37;;;;;;;6.78;100.00;101288.13;5072567;28;20209;-76
2021/10/16 07:16:07;;;;;;;2.00;1.00;;;;;;;6.81;100.00;101275.94;5072574;28;20227;-76
2021/10/16 07:18:32;;;;;;;2.20;1.97;;;;;;;6.85;100.00;101285.19;5090801;28;20177;-75
2021/10/16 07:20:58;;;;;;;1.20;0.47;;;;;;;6.88;100.00;101276.50;5090593;28;20213;-75
2021/10/16 07:23:26;;;;;;;1.73;1.27;;;;;;;6.92;100.00;101283.03;5067534;28;20194;-75
2021/10/16 07:25:56;;;;;;;8.83;2.60;;;;;;;6.96;100.00;101284.13;5075720;28;20174;-76
2021/10/16 07:28:23;;;;;;;0.73;0.73;;;;;;;7.01;100.00;101280.63;5058526;28;20170;-75
2021/10/16 07:30:48;;;;;;;0.80;0.80;;;;;;;7.03;100.00;101294.75;5090325;28;20178;-75
2021/10/16 07:33:14;;;;;;;2.93;1.10;;;;;;;7.07;100.00;101283.06;5090369;28;20632;-76
2021/10/16 07:35:43;;;;;;;0.37;0.37;;;;;;;7.14;100.00;101294.50;5072155;28;20180;-75
2021/10/16 07:38:10;;;;;;;2.10;1.10;;;;;;;7.19;100.00;101296.41;5090603;28;20182;-76
2021/10/16 07:40:36;;;;;;;1.00;1.00;;;;;;;7.24;100.00;101293.75;5090744;28;20544;-75
2021/10/16 07:43:01;;;;;;;1.90;1.20;;;;;;;7.29;100.00;101298.34;5090513;28;20209;-76
2021/10/16 07:45:27;;;;;;;1.57;1.00;;;;;;;7.33;100.00;101300.25;5090401;28;20174;-76
2021/10/16 07:47:53;;;;;;;2.37;2.17;;;;;;;7.37;100.00;101308.69;5090567;28;20170;-81
2021/10/16 07:50:18;;;;;;;0.77;0.77;;;;;;;7.40;100.00;101308.19;5072447;28;20630;-84
2021/10/16 07:52:43;;;;;;;2.40;1.47;;;;;;;7.46;100.00;101307.91;5072366;28;20177;-79
2021/10/16 07:55:09;;;;;;;2.23;1.40;;;;;;;7.55;100.00;101315.53;5090372;28;20632;-81
2021/10/16 07:57:34;;;;;;;1.17;0.87;;;;;;;7.58;100.00;101315.81;5090483;28;20208;-75
2021/10/16 08:00:00;;;;;;;1.50;1.37;;;;;;;7.59;100.00;101316.63;5090741;28;20174;-75
2021/10/16 08:02:25;;;;;;;1.50;1.27;;;;;;;7.59;100.00;101314.72;5072208;28;20258;-74
2021/10/16 08:04:51;;;;;;;3.87;1.70;;;;;;;7.60;100.00;101319.06;5090531;28;20205;-75
2021/10/16 08:07:16;;;;;;;3.53;1.50;;;;;;;7.65;100.00;101318.25;5091119;28;20505;-74
2021/10/16 08:09:41;;;;;;;0.50;0.50;;;;;;;7.72;100.00;101322.34;5075493;28;20170;-75
2021/10/16 08:12:07;;;;;;;0.67;0.40;;;;;;;7.72;100.00;101316.09;5075519;28;20192;-75
2021/10/16 08:14:32;;;;;;;2.37;0.80;;;;;;;7.68;100.00;101315.03;5093225;28;20170;-75
2021/10/16 08:16:57;;;;;;;2.20;1.37;;;;;;;7.73;100.00;101325.91;5092944;28;20617;-74
2021/10/16 08:19:23;;;;;;;5.43;1.33;;;;;;;7.82;100.00;101324.28;5075211;28;20207;-74
2021/10/16 08:21:48;;;;;;;3.90;1.70;;;;;;;7.88;100.00;101319.66;5093396;28;20201;-74
2021/10/16 08:24:14;;;;;;;2.10;1.50;;;;;;;7.91;100.00;101321.81;5093052;28;20197;-74
2021/10/16 08:26:39;;;;;;;2.23;1.17;;;;;;;7.99;100.00;101326.72;5074986;28;20176;-73
2021/10/16 08:29:05;;;;;;;10.73;2.20;;;;;;;8.05;100.00;101331.06;5093168;28;20251;-73
2021/10/16 08:31:30;;;;;;;2.20;1.97;;;;;;;8.06;100.00;101319.91;5093280;28;20201;-74
2021/10/16 08:33:56;;;;;;;2.07;0.80;;;;;;;8.14;100.00;101324.00;5072623;28;20232;-74
2021/10/16 08:36:21;;;;;;;1.77;1.20;;;;;;;8.27;100.00;101337.06;5073991;28;20220;-74
2021/10/16 08:38:46;;;;;;;1.13;0.97;;;;;;;8.33;100.00;101330.50;5093458;28;20166;-74
2021/10/16 08:41:12;;;;;;;1.43;1.07;;;;;;;8.40;100.00;101333.00;5093418;28;20625;-74
2021/10/16 08:43:39;;;;;;;1.03;1.00;;;;;;;8.56;100.00;101326.41;5093253;28;20198;-73
2021/10/16 08:46:05;;;;;;;2.93;1.60;;;;;;;8.49;100.00;101325.06;5075053;28;20217;-74
2021/10/16 08:48:31;;;;;;;3.73;1.30;;;;;;;8.48;100.00;101335.13;5092814;28;20205;-73
2021/10/16 08:50:58;;;;;;;0.93;0.73;;;;;;;8.49;100.00;101325.88;5092442;28;20173;-73
2021/10/16 08:53:23;;;;;;;4.33;1.63;;;;;;;8.44;100.00;101327.81;5073924;28;20172;-73
2021/10/16 08:55:53;;;;;;;1.33;1.07;;;;;;;8.42;100.00;101319.09;5091906;28;20178;-74
2021/10/16 08:58:19;;;;;;;1.47;1.03;;;;;;;8.52;100.00;101329.94;5074240;28;20208;-74
2021/10/16 09:00:51;;;;;;;4.40;1.00;;;;;;;8.65;100.00;101332.91;5092793;28;20166;-74
2021/10/16 09:03:31;;;;;;;2.57;0.90;;;;;;;8.69;100.00;101326.94;5092564;28;20202;-74
2021/10/16 09:06:09;;;;;;;2.10;0.93;;;;;;;8.78;100.00;101330.69;5092056;28;20181;-74
2021/10/16 09:08:53;;;;;;;2.97;1.43;;;;;;;8.89;100.00;101329.59;5092524;28;20279;-74
2021/10/16 09:11:23;;;;;;;3.47;1.40;;;;;;;9.03;100.00;101321.63;5073812;28;20540;-74
2021/10/16 09:13:48;;;;;;;2.87;1.20;;;;;;;9.13;100.00;101327.03;5092044;28;20170;-74
2021/10/16 09:16:34;;;;;;;1.10;0.90;;;;;;;9.20;100.00;101333.00;5091202;28;20170;-74
2021/10/16 09:19:09;;;;;;;0.23;0.23;;;;;;;9.14;100.00;101332.22;5082285;28;20582;-73
2021/10/16 09:21:36;;;;;;;0.70;0.70;;;;;;;9.15;100.00;101328.38;5091863;28;20223;-73
2021/10/16 09:24:11;;;;;;;4.80;1.03;;;;;;;9.23;100.00;101325.06;5074357;28;20173;-73
2021/10/16 09:26:39;;;;;;;1.43;0.87;;;;;;;9.31;100.00;101328.31;5092563;28;20158;-74
2021/10/16 09:29:07;;;;;;;3.13;1.50;;;;;;;9.39;100.00;101327.69;5092509;28;20253;-73
2021/10/16 09:31:40;;;;;;;1.10;0.83;;;;;;;9.46;100.00;101333.69;5074600;28;20202;-74
2021/10/16 09:34:07;;;;;;;1.53;0.80;;;;;;;9.48;100.00;101337.75;5074315;28;20572;-74
2021/10/16 09:36:34;;;;;;;2.20;1.27;;;;;;;9.51;100.00;101333.63;5074190;28;20166;-74
2021/10/16 09:39:00;;;;;;;1.87;1.20;;;;;;;9.56;100.00;101327.34;5074123;28;20659;-74
2021/10/16 09:41:35;;;;;;;4.93;2.30;;;;;;;9.60;100.00;101329.22;5092387;28;20185;-73
2021/10/16 09:44:03;;;;;;;5.67;2.10;;;;;;;9.75;100.00;101336.47;5092031;28;20208;-74
2021/10/16 09:46:28;;;;;;;2.73;1.67;;;;;;;9.83;100.00;101338.59;5073704;28;20174;-74
2021/10/16 09:48:54;;;;;;;4.97;2.00;;;;;;;9.79;100.00;101338.34;5091594;28;20591;-74
2021/10/16 09:51:21;;;;;;;1.53;1.43;;;;;;;9.84;100.00;101341.06;5091863;28;20181;-74
2021/10/16 09:53:50;;;;;;;7.17;1.37;;;;;;;9.91;100.00;101340.72;5073714;28;20185;-74
2021/10/16 09:56:16;;;;;;;2.77;1.10;;;;;;;9.92;100.00;101336.09;5092051;28;20201;-74
2021/10/16 09:58:43;;;;;;;4.73;1.90;;;;;;;9.95;100.00;101336.31;5073674;28;20174;-74
2021/10/16 10:01:09;;;;;;;3.40;1.40;;;;;;;9.95;100.00;101338.25;5091953;28;20260;-73
2021/10/16 10:03:42;;;;;;;8.13;2.20;;;;;;;10.04;100.00;101342.00;5091666;28;20661;-74
2021/10/16 10:06:09;;;;;;;5.63;2.33;;;;;;;10.07;100.00;101339.50;5091731;28;20186;-73
2021/10/16 10:08:35;;;;;;;2.67;1.63;;;;;;;10.06;100.00;101340.59;5073552;28;20170;-74
2021/10/16 10:11:02;;;;;;;2.37;1.43;;;;;;;10.12;100.00;101342.19;5072463;28;20177;-73
2021/10/16 10:13:28;;;;;;;1.87;1.67;;;;;;;10.21;100.00;101339.69;5072649;28;20573;-74
2021/10/16 10:15:55;;;;;;;4.83;1.93;;;;;;;10.31;100.00;101338.78;5090013;28;20198;-74
2021/10/16 10:21:06;;;;;;;3.63;2.43;;;;;;;10.44;100.00;101338.13;5091232;28;20213;-74
2021/10/16 10:23:32;;;;;;;4.60;2.23;;;;;;;10.51;100.00;101335.03;5091021;28;20241;-74
2021/10/16 10:26:31;;;;;;;4.53;1.40;;;;;;;10.54;100.00;101338.00;5072525;28;20498;-74
2021/10/16 10:29:09;;;;;;;3.33;2.43;;;;;;;10.56;100.00;101340.44;5068847;28;20185;-73
2021/10/16 10:31:55;;;;;;;1.97;1.53;;;;;;;10.76;100.00;101339.41;5072432;28;20208;-73
2021/10/16 10:34:28;;;;;;;4.70;2.40;;;;;;;10.88;100.00;101342.56;5072649;28;20181;-73
2021/10/16 10:37:13;;;;;;;3.77;2.43;;;;;;;10.78;99.39;101337.22;5090923;28;20177;-74
2021/10/16 10:39:43;;;;;;;2.23;1.50;;;;;;;10.62;100.00;101331.09;5091276;28;20214;-74
2021/10/16 10:42:11;;;;;;;2.43;1.50;;;;;;;10.50;100.00;101323.28;5072886;28;20202;-73
2021/10/16 10:44:37;;;;;;;3.83;1.90;;;;;;;10.47;100.00;101331.25;5091047;28;20231;-73
2021/10/16 10:47:28;;;;;;;2.40;1.20;;;;;;;10.50;100.00;101325.22;5072929;28;20193;-73
2021/10/16 10:49:56;;;;;;;2.80;0.63;;;;;;;10.48;99.92;101328.22;5091407;28;20196;-73
2021/10/16 10:52:23;;;;;;;3.00;1.10;;;;;;;10.46;98.88;101329.63;5072888;28;20750;-73
2021/10/16 10:55:06;;;;;;;2.17;1.00;;;;;;;10.45;97.91;101317.09;5072748;28;20173;-74
2021/10/16 10:57:59;;;;;;;0.80;0.43;;;;;;;10.45;98.52;101320.63;5072838;28;20646;-74
2021/10/16 11:00:27;;;;;;;2.47;0.77;;;;;;;10.54;100.00;101321.59;5091090;28;20180;-75
2021/10/16 11:02:52;;;;;;;0.70;0.70;;;;;;;10.57;99.51;101326.50;5089786;28;20206;-75
2021/10/16 11:05:31;;;;;;;2.10;0.60;;;;;;;10.64;100.00;101317.97;5068769;28;20263;-75
2021/10/16 11:08:16;;;;;;;1.37;0.50;;;;;;;10.57;97.42;101314.78;5090467;28;20170;-75
2021/10/16 11:10:43;;;;;;;1.30;0.50;;;;;;;10.54;96.93;101318.06;5072313;28;20205;-74
2021/10/16 11:13:18;;;;;;;1.10;0.60;;;;;;;10.51;98.83;101314.00;5090424;28;20220;-74
2021/10/16 11:15:45;;;;;;;2.37;0.90;;;;;;;10.56;98.00;101313.97;5089488;28;20180;-75
2021/10/16 11:18:14;;;;;;;2.33;1.07;;;;;;;10.60;98.51;101316.91;5072422;28;20174;-74
2021/10/16 11:20:41;;;;;;;2.07;1.00;;;;;;;10.64;98.64;101307.03;5090279;28;20178;-75
2021/10/16 11:23:17;;;;;;;1.30;0.87;;;;;;;10.60;98.94;101309.53;5072374;28;20260;-76
2021/10/16 11:25:54;;;;;;;2.73;1.20;;;;;;;10.58;99.38;101300.00;5089890;28;20238;-75